Time;durP1;ratioP1;P1;durP2;ratioP2;P2;SDS_P1;SDS_P2;PMS_P1;PMS_P2;Temp;Humidity;BMP_temperature;BMP_pressure;BME280_temperature;BME280_humidity;BME280_pressure;Samples;Min_cycle;Max_cycle;Signal;HPM_P1;HPM_P2
2024/03/26 00:01:30;;;;;;;6.60;3.30;;;;;;;6.76;88.46;99776.56;5060469;28;20029;-85
2024/03/26 00:03:55;;;;;;;5.82;3.15;;;;;;;6.76;88.58;99768.75;5072465;28;20426;-84
2024/03/26 00:06:20;;;;;;;6.07;3.20;;;;;;;6.73;88.48;99768.88;5073837;28;20025;-84
2024/03/26 00:08:46;;;;;;;6.65;3.28;;;;;;;6.75;88.56;99769.69;5074646;28;20149;-84
2024/03/26 00:11:11;;;;;;;5.05;3.50;;;;;;;6.69;88.15;99769.91;5068325;28;20330;-84
2024/03/26 00:13:36;;;;;;;11.40;3.78;;;;;;;6.70;87.85;99772.47;5053302;28;20143;-84
2024/03/26 00:16:02;;;;;;;5.53;3.00;;;;;;;6.67;88.32;99764.78;5053569;28;20029;-84
2024/03/26 00:18:27;;;;;;;3.63;2.78;;;;;;;6.66;88.64;99757.06;5053428;28;20047;-84
2024/03/26 00:20:53;;;;;;;6.93;3.03;;;;;;;6.67;88.49;99762.16;5055140;28;20032;-84
2024/03/26 00:23:18;;;;;;;7.82;3.45;;;;;;;6.63;88.28;99758.00;5055787;28;20112;-85
2024/03/26 00:25:43;;;;;;;13.23;3.03;;;;;;;6.65;88.26;99753.59;5054714;28;20040;-84
2024/03/26 00:28:09;;;;;;;7.18;2.88;;;;;;;6.60;88.21;99744.28;5053971;28;20237;-84
2024/03/26 00:30:34;;;;;;;9.13;3.10;;;;;;;6.61;88.15;99738.19;5054406;28;20082;-84
2024/03/26 00:32:59;;;;;;;6.75;2.85;;;;;;;6.56;87.73;99733.16;5055403;28;20082;-84
2024/03/26 00:35:25;;;;;;;9.57;3.53;;;;;;;6.55;88.20;99731.50;5055271;28;20040;-84
2024/03/26 00:37:50;;;;;;;8.18;2.88;;;;;;;6.54;88.32;99727.19;5055250;28;20040;-84
2024/03/26 00:40:15;;;;;;;5.43;2.90;;;;;;;6.56;88.56;99729.72;5055801;28;20033;-84
2024/03/26 00:42:40;;;;;;;4.00;2.80;;;;;;;6.59;88.88;99722.63;5055458;28;20040;-84
2024/03/26 00:45:06;;;;;;;6.88;3.10;;;;;;;6.53;88.99;99717.66;5054654;28;20223;-85
2024/03/26 00:47:31;;;;;;;5.07;3.22;;;;;;;6.52;89.13;99718.59;5055382;28;20350;-84
2024/03/26 00:49:56;;;;;;;6.13;3.03;;;;;;;6.51;89.17;99709.09;5055135;28;20370;-84
2024/03/26 00:52:22;;;;;;;5.57;2.90;;;;;;;6.46;89.50;99705.88;5055869;28;20406;-84
2024/03/26 00:54:47;;;;;;;4.65;2.90;;;;;;;6.50;89.74;99697.00;5055814;28;20287;-84
2024/03/26 00:57:12;;;;;;;7.43;2.70;;;;;;;6.49;89.45;99696.19;5055271;28;20074;-84
2024/03/26 00:59:38;;;;;;;6.57;2.72;;;;;;;6.49;89.55;99697.91;5055635;28;20040;-84
2024/03/26 01:02:03;;;;;;;4.25;2.95;;;;;;;6.46;89.70;99691.09;5055355;28;20025;-84
2024/03/26 01:04:28;;;;;;;5.68;3.15;;;;;;;6.47;90.30;99697.13;5054648;28;20044;-85
2024/03/26 01:06:54;;;;;;;8.55;2.75;;;;;;;6.49;89.72;99695.31;5053904;28;20367;-84
2024/03/26 01:09:19;;;;;;;4.28;2.50;;;;;;;6.44;89.69;99692.91;5054557;28;20021;-84
2024/03/26 01:11:47;;;;;;;9.13;2.80;;;;;;;6.44;89.89;99682.50;5054638;28;20035;-84
2024/03/26 01:14:13;;;;;;;8.80;2.55;;;;;;;6.40;89.63;99680.09;5054960;28;20548;-83
2024/03/26 01:16:38;;;;;;;6.15;3.38;;;;;;;6.41;89.77;99674.00;5054892;28;20048;-84
2024/03/26 01:19:03;;;;;;;9.02;2.72;;;;;;;6.42;88.94;99671.34;5055216;28;20257;-85
2024/03/26 01:21:29;;;;;;;9.13;3.45;;;;;;;6.39;89.19;99671.47;5055523;28;20316;-85
2024/03/26 01:23:54;;;;;;;3.67;2.75;;;;;;;6.38;89.56;99671.50;5054980;28;20094;-85
2024/03/26 01:26:19;;;;;;;5.03;3.20;;;;;;;6.38;89.61;99664.56;5054676;28;20330;-84
2024/03/26 01:28:45;;;;;;;9.15;2.90;;;;;;;6.36;89.28;99662.94;5055167;28;20327;-84
2024/03/26 01:31:10;;;;;;;7.10;2.83;;;;;;;6.33;89.46;99658.69;5054841;28;20039;-84
2024/03/26 01:33:35;;;;;;;6.70;3.05;;;;;;;6.33;89.61;99654.34;5054980;28;20096;-84
2024/03/26 01:36:01;;;;;;;10.80;3.00;;;;;;;6.30;89.82;99651.03;5055101;28;20031;-85
2024/03/26 01:38:26;;;;;;;5.80;3.03;;;;;;;6.24;90.31;99644.34;5054659;28;20032;-85
2024/03/26 01:40:51;;;;;;;7.38;2.97;;;;;;;6.30;90.27;99632.84;5058402;28;20036;-84
2024/03/26 01:43:17;;;;;;;6.38;2.90;;;;;;;6.33;90.10;99635.28;5078747;28;20032;-84
2024/03/26 01:45:42;;;;;;;8.60;2.97;;;;;;;6.29;89.77;99634.59;5078881;28;20096;-85
2024/03/26 01:48:08;;;;;;;5.05;2.60;;;;;;;6.27;89.16;99623.41;5078561;28;20036;-84
2024/03/26 01:50:34;;;;;;;6.45;2.85;;;;;;;6.21;89.46;99625.44;5078363;28;20231;-84
2024/03/26 01:52:59;;;;;;;11.30;3.22;;;;;;;6.23;89.82;99621.00;5078752;28;20040;-84
2024/03/26 01:55:25;;;;;;;5.68;2.60;;;;;;;6.24;89.65;99615.75;5078084;28;20331;-84
2024/03/26 01:57:51;;;;;;;4.55;2.63;;;;;;;6.25;89.69;99611.38;5060361;28;20025;-84
2024/03/26 02:00:19;;;;;;;5.88;3.25;;;;;;;6.23;90.49;99613.22;5078882;28;20032;-84
2024/03/26 02:02:44;;;;;;;7.03;2.78;;;;;;;6.17;90.55;99609.13;5078179;28;20032;-84
2024/03/26 02:05:10;;;;;;;9.35;2.72;;;;;;;6.20;90.85;99605.53;5078435;28;20032;-85
2024/03/26 02:07:37;;;;;;;8.23;3.33;;;;;;;6.17;91.12;99603.03;5078389;28;20087;-84
2024/03/26 02:10:06;;;;;;;5.10;2.50;;;;;;;6.20;91.12;99600.31;5078691;28;20247;-84
2024/03/26 02:12:31;;;;;;;5.93;3.03;;;;;;;6.18;90.94;99590.00;5060739;28;20041;-84
2024/03/26 02:14:57;;;;;;;9.60;3.53;;;;;;;6.12;91.06;99591.09;5057754;28;20392;-84
2024/03/26 02:17:22;;;;;;;6.18;2.90;;;;;;;6.12;91.12;99588.50;5058641;28;20263;-85
2024/03/26 02:19:48;;;;;;;7.50;3.60;;;;;;;6.08;91.25;99586.94;5058517;28;20056;-84
2024/03/26 02:22:13;;;;;;;8.38;3.65;;;;;;;6.09;91.62;99578.25;5058123;28;20021;-84
2024/03/26 02:24:39;;;;;;;7.63;2.88;;;;;;;6.09;91.93;99577.38;5057907;28;20068;-85
2024/03/26 02:27:04;;;;;;;7.72;3.10;;;;;;;6.04;92.00;99580.19;5058445;28;20036;-85
2024/03/26 02:29:29;;;;;;;7.78;2.90;;;;;;;5.97;92.01;99568.38;5057517;28;20040;-85
2024/03/26 02:31:55;;;;;;;5.90;3.20;;;;;;;5.96;92.04;99562.28;5056634;28;20028;-85
2024/03/26 02:34:20;;;;;;;9.43;3.10;;;;;;;5.92;91.71;99552.09;5040019;28;20043;-85
2024/03/26 02:36:46;;;;;;;4.60;2.92;;;;;;;5.94;91.41;99558.88;5058312;28;20037;-85
2024/03/26 02:39:12;;;;;;;6.72;3.10;;;;;;;5.95;91.89;99555.44;5057730;28;20032;-84
2024/03/26 02:41:38;;;;;;;3.28;2.72;;;;;;;5.93;91.45;99549.44;5058318;28;20071;-84
2024/03/26 02:44:04;;;;;;;4.30;2.90;;;;;;;5.92;90.91;99539.09;5057871;28;20033;-85
2024/03/26 02:46:30;;;;;;;4.53;3.22;;;;;;;5.95;91.41;99534.63;5057647;28;20071;-85
2024/03/26 02:48:55;;;;;;;7.60;3.08;;;;;;;5.95;91.13;99534.63;5057334;28;20123;-84
2024/03/26 02:51:20;;;;;;;8.27;3.13;;;;;;;5.94;90.78;99527.72;5057085;28;20039;-84
2024/03/26 02:53:46;;;;;;;3.67;2.63;;;;;;;5.94;91.20;99532.06;5056892;28;20040;-84
2024/03/26 02:56:11;;;;;;;9.23;2.95;;;;;;;5.95;91.28;99526.84;5057019;28;20029;-84
2024/03/26 02:58:36;;;;;;;8.65;3.60;;;;;;;5.95;90.84;99515.56;5056025;28;20104;-84
2024/03/26 03:01:20;;;;;;;6.10;3.17;;;;;;;5.90;90.68;99520.13;5057293;28;20021;-84
2024/03/26 03:03:45;;;;;;;4.38;2.90;;;;;;;5.88;91.00;99506.34;5057493;28;20200;-85
2024/03/26 03:06:11;;;;;;;8.25;3.17;;;;;;;5.87;91.55;99509.84;5057394;28;20075;-85
2024/03/26 03:08:37;;;;;;;6.38;3.25;;;;;;;5.84;91.63;99502.19;5057626;28;20341;-85
2024/03/26 03:11:05;;;;;;;7.85;2.80;;;;;;;5.86;91.78;99500.38;5056850;28;20032;-85
2024/03/26 03:13:31;;;;;;;7.03;2.87;;;;;;;5.83;90.98;99503.94;5056975;28;20033;-84
2024/03/26 03:15:56;;;;;;;5.30;2.97;;;;;;;5.86;91.18;99492.59;5056947;28;20201;-85
2024/03/26 03:18:22;;;;;;;5.97;3.38;;;;;;;5.83;90.43;99493.53;5056755;28;20033;-85
2024/03/26 03:20:47;;;;;;;7.18;2.95;;;;;;;5.80;90.95;99490.22;5038894;28;20021;-85
2024/03/26 03:23:13;;;;;;;8.05;3.58;;;;;;;5.84;91.43;99491.78;5056857;28;20033;-84
2024/03/26 03:25:39;;;;;;;10.45;3.45;;;;;;;5.84;91.50;99486.59;5060441;28;20036;-85
2024/03/26 03:28:06;;;;;;;8.82;3.42;;;;;;;5.83;90.92;99477.97;5056667;28;20409;-84
2024/03/26 03:30:31;;;;;;;5.45;2.83;;;;;;;5.83;91.04;99477.97;5062055;28;20374;-84
2024/03/26 03:32:56;;;;;;;7.82;2.80;;;;;;;5.83;90.61;99472.75;5076572;28;20052;-84
2024/03/26 03:35:22;;;;;;;5.68;2.85;;;;;;;5.85;90.13;99470.94;5076587;28;20052;-84
2024/03/26 03:37:47;;;;;;;5.07;3.05;;;;;;;5.84;89.72;99464.06;5063654;28;20431;-85
2024/03/26 03:40:12;;;;;;;6.28;3.40;;;;;;;5.77;89.85;99458.28;5058616;28;20281;-82
2024/03/26 03:42:38;;;;;;;7.47;3.13;;;;;;;5.79;90.31;99450.44;5075459;28;20103;-82
2024/03/26 03:45:06;;;;;;;5.07;2.65;;;;;;;5.80;89.78;99453.84;5078470;28;20036;-82
2024/03/26 03:47:32;;;;;;;3.55;2.80;;;;;;;5.80;90.31;99453.84;5078342;28;20040;-82
2024/03/26 03:49:57;;;;;;;6.85;3.08;;;;;;;5.81;90.59;99459.00;5078943;28;20036;-82
2024/03/26 03:52:22;;;;;;;9.90;3.08;;;;;;;5.78;91.31;99446.13;5078178;28;20043;-82
2024/03/26 03:54:48;;;;;;;8.30;3.40;;;;;;;5.73;90.68;99446.34;5078334;28;20043;-82
2024/03/26 03:57:13;;;;;;;5.03;2.80;;;;;;;5.73;91.29;99443.75;5078193;28;20036;-82
2024/03/26 03:59:38;;;;;;;5.97;2.75;;;;;;;5.76;90.60;99438.41;5078252;28;20074;-82
2024/03/26 04:02:04;;;;;;;6.75;2.80;;;;;;;5.75;90.58;99438.50;5078150;28;20323;-82
2024/03/26 04:04:29;;;;;;;7.32;3.67;;;;;;;5.68;90.60;99432.69;5068498;28;20028;-82
2024/03/26 04:06:54;;;;;;;3.88;2.45;;;;;;;5.66;90.82;99436.28;5058241;28;20409;-82
2024/03/26 04:09:20;;;;;;;6.22;3.20;;;;;;;5.65;90.74;99424.19;5058020;28;20279;-82
2024/03/26 04:11:45;;;;;;;8.63;3.83;;;;;;;5.65;90.18;99429.38;5057369;28;20036;-82
2024/03/26 04:14:11;;;;;;;7.72;2.78;;;;;;;5.64;90.48;99420.75;5058623;28;20021;-82
2024/03/26 04:16:36;;;;;;;8.07;3.15;;;;;;;5.66;91.47;99421.53;5057289;28;20037;-82
2024/03/26 04:19:02;;;;;;;7.10;2.67;;;;;;;5.66;91.51;99418.09;5058077;28;20208;-82
2024/03/26 04:21:27;;;;;;;4.88;2.95;;;;;;;5.66;91.61;99412.91;5058216;28;20044;-82
2024/03/26 04:23:53;;;;;;;4.07;2.88;;;;;;;5.65;91.97;99421.59;5057414;28;20131;-82
2024/03/26 04:26:18;;;;;;;8.15;3.20;;;;;;;5.68;92.43;99419.72;5058074;28;20099;-82
2024/03/26 04:28:43;;;;;;;7.78;3.20;;;;;;;5.60;92.54;99406.19;5057663;28;20095;-82
2024/03/26 04:31:09;;;;;;;3.67;3.33;;;;;;;5.66;92.07;99415.50;5058090;28;20216;-82
2024/03/26 04:33:34;;;;;;;6.53;3.25;;;;;;;5.64;92.49;99415.56;5057421;28;20028;-83
2024/03/26 04:35:59;;;;;;;5.57;3.15;;;;;;;5.62;92.96;99404.41;5057925;28;20040;-82
2024/03/26 04:38:25;;;;;;;6.40;2.92;;;;;;;5.65;92.10;99416.41;5057433;28;20040;-82
2024/03/26 04:40:50;;;;;;;5.35;3.03;;;;;;;5.61;92.68;99404.47;5042864;28;20024;-82
2024/03/26 04:43:15;;;;;;;7.20;3.03;;;;;;;5.63;93.36;99400.03;5077390;28;20090;-82
2024/03/26 04:45:41;;;;;;;10.57;2.92;;;;;;;5.57;93.59;99404.59;5077900;28;20063;-82
2024/03/26 04:48:07;;;;;;;6.80;3.22;;;;;;;5.52;93.76;99401.34;5059769;28;20227;-81
2024/03/26 04:50:32;;;;;;;5.30;3.00;;;;;;;5.49;93.75;99401.47;5059005;28;20033;-82
2024/03/26 04:52:58;;;;;;;4.93;3.13;;;;;;;5.49;94.24;99398.03;5059734;28;20031;-82
2024/03/26 04:55:23;;;;;;;8.55;3.30;;;;;;;5.51;93.75;99394.47;5077596;28;20036;-82
2024/03/26 04:57:49;;;;;;;4.60;2.72;;;;;;;5.44;93.89;99394.78;5077784;28;20396;-82
2024/03/26 05:00:14;;;;;;;4.50;3.30;;;;;;;5.48;94.33;99399.78;5077537;28;20036;-83
2024/03/26 05:02:41;;;;;;;8.82;3.28;;;;;;;5.46;94.56;99400.78;5059305;28;20066;-82
2024/03/26 05:05:07;;;;;;;9.32;3.42;;;;;;;5.44;94.61;99403.44;5077612;28;20028;-83
2024/03/26 05:07:33;;;;;;;6.47;3.47;;;;;;;5.43;94.96;99400.91;5077306;28;20063;-83
2024/03/26 05:09:59;;;;;;;5.03;3.05;;;;;;;5.43;94.96;99396.53;5077105;28;20037;-82
2024/03/26 05:12:24;;;;;;;7.78;3.28;;;;;;;5.37;94.70;99400.25;5077475;28;20037;-83
2024/03/26 05:14:49;;;;;;;5.43;3.17;;;;;;;5.37;94.83;99394.22;5077832;28;20040;-83
2024/03/26 05:17:15;;;;;;;7.10;3.45;;;;;;;5.34;94.91;99396.94;5081410;28;20033;-83
2024/03/26 05:19:41;;;;;;;8.73;3.55;;;;;;;5.35;95.22;99399.47;5063118;28;20243;-83
2024/03/26 05:22:06;;;;;;;10.27;3.53;;;;;;;5.26;95.15;99394.66;5081600;28;20258;-83
2024/03/26 05:24:32;;;;;;;6.18;3.72;;;;;;;5.31;95.34;99405.72;5081341;28;20020;-83
2024/03/26 05:26:58;;;;;;;6.40;3.30;;;;;;;5.28;95.43;99399.81;5081146;28;20039;-83
2024/03/26 05:29:23;;;;;;;6.82;3.20;;;;;;;5.29;95.65;99404.06;5081110;28;20040;-82
2024/03/26 05:31:48;;;;;;;7.22;3.63;;;;;;;5.30;95.05;99397.97;5081330;28;20037;-83
2024/03/26 05:34:14;;;;;;;4.95;3.63;;;;;;;5.25;95.07;99394.72;5081057;28;20033;-82
2024/03/26 05:36:39;;;;;;;5.45;3.28;;;;;;;5.28;94.92;99387.66;5081555;28;20040;-83
2024/03/26 05:39:05;;;;;;;8.38;4.07;;;;;;;5.24;95.02;99390.44;5063106;28;20347;-83
2024/03/26 05:41:31;;;;;;;5.15;3.42;;;;;;;5.22;94.75;99392.25;5071540;28;20029;-83
2024/03/26 05:43:56;;;;;;;4.72;3.08;;;;;;;5.25;95.14;99389.53;5061395;28;20123;-83
2024/03/26 05:46:22;;;;;;;4.75;3.38;;;;;;;5.28;95.48;99382.47;5061665;28;20296;-83
2024/03/26 05:48:47;;;;;;;5.88;3.28;;;;;;;5.33;95.76;99384.84;5060882;28;20033;-83
2024/03/26 05:51:12;;;;;;;7.85;3.67;;;;;;;5.30;95.77;99383.25;5042705;28;20433;-82
2024/03/26 05:53:38;;;;;;;7.18;3.50;;;;;;;5.25;95.87;99379.16;5061163;28;20040;-83
2024/03/26 05:56:04;;;;;;;7.45;3.22;;;;;;;5.30;95.31;99382.41;5059634;28;20259;-82
2024/03/26 05:58:29;;;;;;;7.90;3.75;;;;;;;5.28;95.79;99381.63;5061047;28;20103;-83
2024/03/26 06:00:55;;;;;;;8.40;3.88;;;;;;;5.33;95.64;99375.34;5060534;28;20020;-83
2024/03/26 06:03:20;;;;;;;3.45;3.15;;;;;;;5.31;95.55;99376.28;5061044;28;20368;-83
2024/03/26 06:05:45;;;;;;;5.65;3.35;;;;;;;5.28;95.71;99371.25;5061174;28;20064;-82
2024/03/26 06:08:11;;;;;;;8.10;3.10;;;;;;;5.34;96.00;99374.41;5060554;28;20099;-82
2024/03/26 06:10:36;;;;;;;6.35;3.45;;;;;;;5.37;95.69;99369.09;5050166;28;20103;-82
2024/03/26 06:13:01;;;;;;;7.15;3.70;;;;;;;5.40;95.42;99373.28;5060498;28;20025;-82
2024/03/26 06:15:27;;;;;;;5.95;3.63;;;;;;;5.39;95.20;99369.88;5060533;28;20029;-82
2024/03/26 06:17:52;;;;;;;6.50;3.50;;;;;;;5.38;95.37;99362.13;5068439;28;20028;-82
2024/03/26 06:20:17;;;;;;;7.75;3.78;;;;;;;5.41;95.56;99354.22;5073168;28;20029;-82
2024/03/26 06:22:43;;;;;;;5.85;3.10;;;;;;;5.44;94.97;99348.03;5052944;28;20097;-82
2024/03/26 06:25:08;;;;;;;6.13;3.75;;;;;;;5.47;94.84;99347.91;5057876;28;20050;-82
2024/03/26 06:27:33;;;;;;;8.02;3.22;;;;;;;5.49;94.59;99354.72;5079401;28;20040;-82
2024/03/26 06:30:00;;;;;;;5.07;3.70;;;;;;;5.48;94.25;99350.47;5080212;28;20331;-82
2024/03/26 06:32:25;;;;;;;6.43;3.65;;;;;;;5.45;94.56;99353.19;5080294;28;20037;-82
2024/03/26 06:34:51;;;;;;;5.68;3.60;;;;;;;5.47;94.45;99346.16;5080314;28;20063;-82
2024/03/26 06:37:16;;;;;;;5.85;3.42;;;;;;;5.49;95.16;99346.09;5079819;28;20227;-82
2024/03/26 06:39:41;;;;;;;6.38;3.47;;;;;;;5.54;95.08;99333.75;5079454;28;20035;-82
2024/03/26 06:42:07;;;;;;;7.80;4.05;;;;;;;5.51;94.39;99320.91;5047261;28;20206;-82
2024/03/26 06:44:32;;;;;;;5.05;3.20;;;;;;;5.52;94.38;99323.44;5059105;28;20054;-82
2024/03/26 06:46:58;;;;;;;5.32;3.38;;;;;;;5.55;94.07;99323.31;5059798;28;20307;-82
2024/03/26 06:49:23;;;;;;;4.82;3.40;;;;;;;5.54;93.73;99323.38;5059011;28;20029;-81
2024/03/26 06:51:49;;;;;;;3.42;3.08;;;;;;;5.50;93.02;99314.88;5059515;28;20035;-82
2024/03/26 06:54:14;;;;;;;5.10;3.40;;;;;;;5.50;93.42;99319.22;5058470;28;20335;-82
2024/03/26 06:56:40;;;;;;;3.78;3.35;;;;;;;5.52;93.66;99322.59;5057770;28;20024;-82
2024/03/26 06:59:05;;;;;;;6.82;3.20;;;;;;;5.51;94.12;99321.78;5040483;28;20060;-82
2024/03/26 07:01:31;;;;;;;8.30;3.63;;;;;;;5.55;94.00;99318.13;5058795;28;20033;-82
2024/03/26 07:03:56;;;;;;;7.75;3.30;;;;;;;5.57;93.72;99321.47;5058893;28;20071;-82
2024/03/26 07:06:22;;;;;;;3.83;3.45;;;;;;;5.58;93.66;99310.19;5059248;28;20037;-82
2024/03/26 07:08:47;;;;;;;5.85;3.35;;;;;;;5.61;93.43;99306.59;5059158;28;20032;-82
2024/03/26 07:11:13;;;;;;;5.63;3.63;;;;;;;5.63;93.18;99303.94;5059355;28;20037;-82
2024/03/26 07:13:38;;;;;;;5.47;3.67;;;;;;;5.67;93.09;99298.53;5058946;28;20028;-82
2024/03/26 07:16:06;;;;;;;6.82;3.50;;;;;;;5.68;92.81;99294.19;5059163;28;20038;-82
2024/03/26 07:18:32;;;;;;;6.67;3.67;;;;;;;5.67;92.83;99295.94;5058930;28;20366;-82
2024/03/26 07:20:58;;;;;;;6.95;3.58;;;;;;;5.66;92.87;99288.25;5059457;28;20655;-82
2024/03/26 07:23:26;;;;;;;6.40;3.33;;;;;;;5.65;92.88;99289.97;5057359;28;20029;-82
2024/03/26 07:25:51;;;;;;;5.25;3.30;;;;;;;5.68;92.86;99286.41;5058697;28;20029;-82
2024/03/26 07:28:17;;;;;;;5.15;3.70;;;;;;;5.65;92.66;99292.56;5058887;28;20139;-82
2024/03/26 07:30:43;;;;;;;5.25;3.65;;;;;;;5.63;92.92;99298.75;5059047;28;20047;-82
2024/03/26 07:33:08;;;;;;;3.92;3.50;;;;;;;5.60;93.06;99299.72;5041134;28;20510;-82
2024/03/26 07:35:33;;;;;;;8.73;3.50;;;;;;;5.58;92.59;99297.22;5040799;28;20033;-82
2024/03/26 07:37:59;;;;;;;7.53;3.38;;;;;;;5.63;92.68;99289.19;5040771;28;20048;-82
2024/03/26 07:40:24;;;;;;;5.80;3.47;;;;;;;5.74;92.89;99293.91;5060610;28;20049;-82
2024/03/26 07:42:49;;;;;;;5.53;3.60;;;;;;;5.81;93.41;99286.69;5066156;28;20025;-82
2024/03/26 07:45:15;;;;;;;7.00;3.67;;;;;;;5.84;93.42;99284.78;5063028;28;20029;-82
2024/03/26 07:47:40;;;;;;;6.40;3.90;;;;;;;5.87;93.41;99287.22;5072626;28;20286;-82
2024/03/26 07:50:06;;;;;;;7.15;3.45;;;;;;;5.90;93.04;99288.88;5071434;28;20305;-82
2024/03/26 07:52:31;;;;;;;4.97;3.90;;;;;;;5.94;93.39;99270.44;5069412;28;20036;-82
2024/03/26 07:54:56;;;;;;;4.90;3.50;;;;;;;5.93;93.44;99271.38;5066128;28;20024;-82
2024/03/26 07:57:22;;;;;;;5.63;3.90;;;;;;;5.95;93.14;99260.91;5066521;28;20036;-82
2024/03/26 07:59:47;;;;;;;5.88;3.10;;;;;;;5.99;93.12;99266.84;5064510;28;20095;-82
2024/03/26 08:02:13;;;;;;;7.88;3.75;;;;;;;6.02;92.98;99264.09;5062452;28;20039;-82
2024/03/26 08:04:38;;;;;;;4.78;3.70;;;;;;;6.05;93.15;99261.34;5060200;28;20377;-82
2024/03/26 08:07:04;;;;;;;8.68;4.32;;;;;;;6.04;92.96;99260.50;5052894;28;20048;-82
2024/03/26 08:09:30;;;;;;;5.75;3.58;;;;;;;6.08;92.27;99256.84;5066429;28;20040;-83
2024/03/26 08:11:55;;;;;;;5.57;3.40;;;;;;;6.09;92.48;99253.34;5063851;28;20232;-82
2024/03/26 08:14:21;;;;;;;7.30;3.85;;;;;;;6.14;92.32;99258.31;5043795;28;20024;-82
2024/03/26 08:16:46;;;;;;;7.30;4.15;;;;;;;6.18;92.32;99257.25;5062958;28;20040;-82
2024/03/26 08:19:11;;;;;;;4.55;3.60;;;;;;;6.21;92.42;99256.28;5065938;28;20024;-83
2024/03/26 08:21:37;;;;;;;3.85;3.17;;;;;;;6.21;92.14;99256.28;5066576;28;20059;-82
2024/03/26 08:24:04;;;;;;;5.18;3.03;;;;;;;6.23;92.20;99244.88;5061918;28;20058;-82
2024/03/26 08:26:30;;;;;;;7.03;3.92;;;;;;;6.26;92.41;99255.13;5061948;28;20024;-82
2024/03/26 08:28:55;;;;;;;7.15;4.00;;;;;;;6.27;92.80;99251.59;5065159;28;20352;-82
2024/03/26 08:31:20;;;;;;;7.50;3.80;;;;;;;6.29;92.35;99252.41;5066817;28;20028;-82
2024/03/26 08:33:46;;;;;;;4.57;3.78;;;;;;;6.37;92.10;99251.16;5064019;28;20055;-83
2024/03/26 08:36:11;;;;;;;4.53;3.70;;;;;;;6.40;92.21;99249.25;5054855;28;20033;-83
2024/03/26 08:38:38;;;;;;;6.70;3.80;;;;;;;6.41;92.33;99244.91;5064852;28;20032;-82
2024/03/26 08:41:03;;;;;;;5.13;3.92;;;;;;;6.41;92.04;99235.34;5071371;28;20032;-82
2024/03/26 08:43:29;;;;;;;7.25;4.07;;;;;;;6.42;92.12;99237.03;5068632;28;20047;-82
2024/03/26 08:45:54;;;;;;;4.35;3.95;;;;;;;6.45;92.12;99241.22;5069025;28;20048;-82
2024/03/26 08:48:20;;;;;;;6.07;3.78;;;;;;;6.50;92.25;99241.84;5068137;28;20111;-82
2024/03/26 08:50:45;;;;;;;6.30;3.78;;;;;;;6.49;92.29;99233.22;5067925;28;20432;-82
2024/03/26 08:53:10;;;;;;;3.72;3.30;;;;;;;6.52;92.38;99229.59;5057073;28;20342;-82
2024/03/26 08:55:36;;;;;;;6.38;3.45;;;;;;;6.52;92.20;99227.00;5064539;28;20039;-82
2024/03/26 08:58:02;;;;;;;7.55;3.75;;;;;;;6.52;91.54;99229.59;5055719;28;20033;-82
2024/03/26 09:00:28;;;;;;;6.90;3.72;;;;;;;6.53;91.52;99226.94;5066718;28;20063;-82
2024/03/26 09:02:54;;;;;;;4.88;3.63;;;;;;;6.60;91.63;99224.84;5076959;28;20040;-82
2024/03/26 09:05:19;;;;;;;7.65;4.03;;;;;;;6.66;91.74;99221.97;5076539;28;20032;-82
2024/03/26 09:07:45;;;;;;;4.55;3.20;;;;;;;6.67;91.65;99218.44;5057340;28;20370;-82
2024/03/26 09:10:10;;;;;;;3.90;3.40;;;;;;;6.74;91.94;99205.97;5059276;28;20032;-82
2024/03/26 09:12:37;;;;;;;10.98;3.70;;;;;;;6.81;91.69;99214.31;5058253;28;20220;-82
2024/03/26 09:15:03;;;;;;;4.05;3.60;;;;;;;6.85;91.72;99203.63;5055498;28;20033;-82
2024/03/26 09:17:28;;;;;;;4.70;3.17;;;;;;;6.88;91.34;99200.06;5055848;28;20331;-82
2024/03/26 09:19:55;;;;;;;6.05;3.92;;;;;;;6.93;91.30;99192.84;5055601;28;20071;-82
2024/03/26 09:22:20;;;;;;;4.05;3.33;;;;;;;6.97;91.18;99189.16;5061815;28;20036;-82
2024/03/26 09:24:45;;;;;;;5.57;3.58;;;;;;;6.99;91.44;99187.31;5076466;28;20036;-82
2024/03/26 09:27:10;;;;;;;5.95;3.50;;;;;;;7.02;91.23;99184.56;5075242;28;20103;-82
2024/03/26 09:29:36;;;;;;;7.93;3.70;;;;;;;7.03;91.30;99178.41;5077198;28;20092;-82
2024/03/26 09:32:02;;;;;;;7.22;3.63;;;;;;;7.07;91.36;99179.09;5073488;28;20036;-82
2024/03/26 09:34:27;;;;;;;5.10;3.35;;;;;;;7.12;91.19;99177.09;5077357;28;20373;-82
2024/03/26 09:36:54;;;;;;;4.38;3.50;;;;;;;7.16;91.42;99180.38;5075598;28;20025;-82
2024/03/26 09:39:20;;;;;;;5.05;3.58;;;;;;;7.19;91.45;99175.84;5076932;28;20044;-82
2024/03/26 09:41:48;;;;;;;8.32;3.50;;;;;;;7.24;91.50;99178.19;5065686;28;20025;-82
2024/03/26 09:44:14;;;;;;;5.03;3.35;;;;;;;7.27;91.49;99180.66;5038536;28;20036;-82
2024/03/26 09:46:40;;;;;;;9.70;4.13;;;;;;;7.29;91.20;99182.28;5039008;28;20366;-82
2024/03/26 09:49:07;;;;;;;5.68;3.30;;;;;;;7.35;91.31;99173.28;5057086;28;20033;-82
2024/03/26 09:51:33;;;;;;;6.07;3.80;;;;;;;7.37;91.22;99179.25;5056475;28;20025;-82
2024/03/26 09:53:59;;;;;;;9.80;3.40;;;;;;;7.41;91.12;99172.09;5057266;28;20209;-82
2024/03/26 09:56:25;;;;;;;4.45;3.25;;;;;;;7.45;91.41;99164.03;5057184;28;20328;-82
2024/03/26 09:58:50;;;;;;;4.70;3.25;;;;;;;7.48;91.41;99168.25;5038931;28;20059;-82
2024/03/26 10:01:25;;;;;;;5.15;3.38;;;;;;;7.50;91.38;99162.03;5038667;28;20343;-82
2024/03/26 10:03:52;;;;;;;4.53;4.00;;;;;;;7.58;90.80;99164.19;5059475;28;20240;-82
2024/03/26 10:06:20;;;;;;;5.55;3.50;;;;;;;7.59;89.96;99158.06;5059551;28;20035;-82
2024/03/26 10:08:48;;;;;;;4.57;3.47;;;;;;;7.63;89.70;99163.94;5060085;28;20028;-82
2024/03/26 10:11:13;;;;;;;7.60;4.13;;;;;;;7.67;90.38;99152.44;5059789;28;20059;-82
2024/03/26 10:13:38;;;;;;;8.27;3.95;;;;;;;7.69;90.11;99151.44;5059619;28;20362;-82
2024/03/26 10:16:04;;;;;;;7.80;3.38;;;;;;;7.73;89.84;99151.25;5041437;28;20029;-82
2024/03/26 10:18:29;;;;;;;3.47;3.10;;;;;;;7.77;90.02;99151.00;5059472;28;20083;-82
2024/03/26 10:20:55;;;;;;;3.35;3.10;;;;;;;7.80;89.91;99149.97;5059147;28;20263;-82
2024/03/26 10:23:20;;;;;;;4.47;3.78;;;;;;;7.84;90.09;99139.31;5040504;28;20021;-82
2024/03/26 10:25:46;;;;;;;4.47;3.13;;;;;;;7.87;90.24;99135.69;5057310;28;20021;-82
2024/03/26 10:28:11;;;;;;;3.75;3.17;;;;;;;7.92;90.17;99127.59;5059587;28;20063;-83
2024/03/26 10:30:37;;;;;;;3.97;3.40;;;;;;;7.92;90.06;99125.84;5041569;28;20036;-82
2024/03/26 10:33:05;;;;;;;5.00;3.42;;;;;;;7.96;90.16;99122.13;5059176;28;20029;-82
2024/03/26 10:35:32;;;;;;;3.97;3.58;;;;;;;7.98;89.98;99120.25;5040876;28;20225;-82
2024/03/26 10:38:02;;;;;;;6.47;3.58;;;;;;;8.02;89.83;99119.19;5040502;28;20036;-82
2024/03/26 10:40:31;;;;;;;3.80;3.47;;;;;;;8.04;89.42;99109.50;5058869;28;20049;-82
2024/03/26 10:42:59;;;;;;;7.63;3.60;;;;;;;8.07;88.79;99105.84;5041103;28;20029;-82
2024/03/26 10:45:25;;;;;;;5.15;4.07;;;;;;;8.10;88.76;99105.69;5059227;28;20032;-84
2024/03/26 10:47:52;;;;;;;4.68;3.47;;;;;;;8.12;88.72;99108.22;5058071;28;20029;-81
2024/03/26 10:50:19;;;;;;;4.13;3.63;;;;;;;8.16;88.93;99104.50;5059374;28;20074;-81
2024/03/26 10:52:47;;;;;;;4.55;3.40;;;;;;;8.17;88.59;99100.97;5059554;28;20037;-82
2024/03/26 10:55:12;;;;;;;4.25;3.13;;;;;;;8.20;88.58;99091.16;5059693;28;20039;-81
2024/03/26 10:57:41;;;;;;;4.70;3.80;;;;;;;8.23;88.63;99093.59;5051619;28;20343;-81
2024/03/26 11:00:10;;;;;;;3.50;3.20;;;;;;;8.27;88.91;99089.88;5079301;28;20032;-82
2024/03/26 11:02:38;;;;;;;9.80;4.03;;;;;;;8.32;88.86;99089.63;5079710;28;20038;-83
2024/03/26 11:05:05;;;;;;;6.15;3.95;;;;;;;8.36;89.14;99098.09;5078502;28;20024;-81
2024/03/26 11:07:37;;;;;;;4.00;3.60;;;;;;;8.37;89.31;99089.38;5078937;28;20052;-81
2024/03/26 11:10:11;;;;;;;10.13;4.00;;;;;;;8.38;89.14;99089.25;5078850;28;20032;-82
2024/03/26 11:12:38;;;;;;;9.65;3.78;;;;;;;8.41;89.32;99089.06;5061100;28;20024;-81
2024/03/26 11:15:15;;;;;;;4.75;3.75;;;;;;;8.46;89.50;99088.84;5079291;28;20086;-81
2024/03/26 11:18:03;;;;;;;4.47;3.97;;;;;;;8.47;89.80;99090.50;5079350;28;20032;-81
2024/03/26 11:20:30;;;;;;;4.88;3.85;;;;;;;8.51;89.51;99094.59;5079160;28;20331;-81
2024/03/26 11:22:55;;;;;;;4.68;3.78;;;;;;;8.53;89.47;99091.91;5078636;28;20036;-81
2024/03/26 11:25:25;;;;;;;5.97;4.65;;;;;;;8.55;89.71;99093.50;5078869;28;20258;-81
2024/03/26 11:27:53;;;;;;;5.45;3.92;;;;;;;8.57;89.88;99091.66;5078733;28;20036;-81
2024/03/26 11:30:19;;;;;;;4.20;3.75;;;;;;;8.58;89.52;99085.47;5078495;28;20224;-81
2024/03/26 11:32:45;;;;;;;5.45;3.80;;;;;;;8.60;89.93;99090.59;5078744;28;20036;-82
2024/03/26 11:35:45;;;;;;;4.72;4.00;;;;;;;8.64;90.07;99089.47;5078562;28;20042;-81